sensor_id;sensor_type;location;lat;lon;timestamp;pressure;altitude;pressure_sealevel;temperature;humidity
47530;BME280;33272;51.922;7.730;2023-04-25T00:02:24;144280.09;;;7.17;100.00
47530;BME280;33272;51.922;7.730;2023-04-25T00:04:52;144307.91;;;7.29;100.00
47530;BME280;33272;51.922;7.730;2023-04-25T00:07:20;144300.34;;;7.26;100.00
47530;BME280;33272;51.922;7.730;2023-04-25T00:09:47;144316.75;;;7.32;100.00
47530;BME280;33272;51.922;7.730;2023-04-25T00:12:14;144315.50;;;7.32;100.00
47530;BME280;33272;51.922;7.730;2023-04-25T00:14:41;144316.75;;;7.32;100.00
47530;BME280;33272;51.922;7.730;2023-04-25T00:17:08;144331.94;;;7.38;100.00
47530;BME280;33272;51.922;7.730;2023-04-25T00:19:35;144349.63;;;7.46;100.00
47530;BME280;33272;51.922;7.730;2023-04-25T00:22:04;144344.53;;;7.43;100.00
47530;BME280;33272;51.922;7.730;2023-04-25T00:24:31;144328.13;;;7.37;100.00
47530;BME280;33272;51.922;7.730;2023-04-25T00:26:58;144333.19;;;7.39;100.00
47530;BME280;33272;51.922;7.730;2023-04-25T00:29:25;144360.97;;;7.50;100.00
47530;BME280;33272;51.922;7.730;2023-04-25T00:31:52;144330.69;;;7.38;100.00
47530;BME280;33272;51.922;7.730;2023-04-25T00:34:19;144331.94;;;7.38;100.00
47530;BME280;33272;51.922;7.730;2023-04-25T00:36:46;144344.53;;;7.43;100.00
47530;BME280;33272;51.922;7.730;2023-04-25T00:39:14;144343.28;;;7.43;100.00
47530;BME280;33272;51.922;7.730;2023-04-25T00:41:41;144316.75;;;7.32;100.00
47530;BME280;33272;51.922;7.730;2023-04-25T00:44:10;144331.94;;;7.38;100.00
47530;BME280;33272;51.922;7.730;2023-04-25T00:46:39;144353.44;;;7.47;100.00
47530;BME280;33272;51.922;7.730;2023-04-25T00:49:06;144352.13;;;7.47;100.00
47530;BME280;33272;51.922;7.730;2023-04-25T00:51:33;144344.53;;;7.43;100.00
47530;BME280;33272;51.922;7.730;2023-04-25T00:54:01;144343.28;;;7.43;100.00
47530;BME280;33272;51.922;7.730;2023-04-25T00:56:29;144336.97;;;7.40;100.00
47530;BME280;33272;51.922;7.730;2023-04-25T00:58:56;144324.34;;;7.35;100.00
47530;BME280;33272;51.922;7.730;2023-04-25T01:01:25;144330.69;;;7.38;100.00
47530;BME280;33272;51.922;7.730;2023-04-25T01:03:54;144339.50;;;7.41;100.00
47530;BME280;33272;51.922;7.730;2023-04-25T01:06:21;144305.34;;;7.28;100.00
47530;BME280;33272;51.922;7.730;2023-04-25T01:08:48;144305.34;;;7.28;100.00
47530;BME280;33272;51.922;7.730;2023-04-25T01:11:15;144315.50;;;7.32;100.00
47530;BME280;33272;51.922;7.730;2023-04-25T01:13:43;144323.09;;;7.35;100.00
47530;BME280;33272;51.922;7.730;2023-04-25T01:16:10;144329.38;;;7.37;100.00
47530;BME280;33272;51.922;7.730;2023-04-25T01:18:39;144348.34;;;7.45;100.00
47530;BME280;33272;51.922;7.730;2023-04-25T01:21:09;144357.19;;;7.49;100.00
47530;BME280;33272;51.922;7.730;2023-04-25T01:23:37;144338.25;;;7.41;100.00
47530;BME280;33272;51.922;7.730;2023-04-25T01:26:06;144347.09;;;7.45;100.00
47530;BME280;33272;51.922;7.730;2023-04-25T01:28:35;144338.25;;;7.41;100.00
47530;BME280;33272;51.922;7.730;2023-04-25T01:31:02;144344.53;;;7.43;100.00
47530;BME280;33272;51.922;7.730;2023-04-25T01:33:29;144355.94;;;7.48;100.00
47530;BME280;33272;51.922;7.730;2023-04-25T01:35:56;144345.84;;;7.44;100.00
47530;BME280;33272;51.922;7.730;2023-04-25T01:38:25;144348.34;;;7.45;100.00
47530;BME280;33272;51.922;7.730;2023-04-25T01:40:54;144353.44;;;7.47;100.00
47530;BME280;33272;51.922;7.730;2023-04-25T01:43:21;144345.84;;;7.44;100.00
47530;BME280;33272;51.922;7.730;2023-04-25T01:45:49;144349.63;;;7.46;100.00
47530;BME280;33272;51.922;7.730;2023-04-25T01:48:17;144329.38;;;7.37;100.00
47530;BME280;33272;51.922;7.730;2023-04-25T01:50:44;144352.13;;;7.47;100.00
47530;BME280;33272;51.922;7.730;2023-04-25T01:53:12;144358.47;;;7.49;100.00
47530;BME280;33272;51.922;7.730;2023-04-25T01:55:41;144364.78;;;7.52;100.00
47530;BME280;33272;51.922;7.730;2023-04-25T01:58:08;144368.56;;;7.53;100.00
47530;BME280;33272;51.922;7.730;2023-04-25T02:00:38;144373.63;;;7.55;100.00
47530;BME280;33272;51.922;7.730;2023-04-25T02:03:07;144366.03;;;7.52;100.00
47530;BME280;33272;51.922;7.730;2023-04-25T02:05:35;144372.38;;;7.55;100.00
47530;BME280;33272;51.922;7.730;2023-04-25T02:08:04;144368.56;;;7.53;100.00
47530;BME280;33272;51.922;7.730;2023-04-25T02:10:31;144386.28;;;7.60;100.00
47530;BME280;33272;51.922;7.730;2023-04-25T02:13:00;144373.63;;;7.55;100.00
47530;BME280;33272;51.922;7.730;2023-04-25T02:15:27;144371.13;;;7.54;100.00
47530;BME280;33272;51.922;7.730;2023-04-25T02:17:54;144371.13;;;7.54;100.00
47530;BME280;33272;51.922;7.730;2023-04-25T02:20:23;144366.03;;;7.52;100.00
47530;BME280;33272;51.922;7.730;2023-04-25T02:22:50;144362.28;;;7.51;100.00
47530;BME280;33272;51.922;7.730;2023-04-25T02:25:17;144355.94;;;7.48;100.00
47530;BME280;33272;51.922;7.730;2023-04-25T02:27:45;144360.97;;;7.50;100.00
47530;BME280;33272;51.922;7.730;2023-04-25T02:30:14;144360.97;;;7.50;100.00
47530;BME280;33272;51.922;7.730;2023-04-25T02:32:41;144363.53;;;7.51;100.00
47530;BME280;33272;51.922;7.730;2023-04-25T02:35:09;144364.78;;;7.52;100.00
47530;BME280;33272;51.922;7.730;2023-04-25T02:37:37;144357.19;;;7.49;100.00
47530;BME280;33272;51.922;7.730;2023-04-25T02:40:06;144363.53;;;7.51;100.00
47530;BME280;33272;51.922;7.730;2023-04-25T02:42:34;144363.53;;;7.51;100.00
47530;BME280;33272;51.922;7.730;2023-04-25T02:45:01;144350.88;;;7.46;100.00
47530;BME280;33272;51.922;7.730;2023-04-25T02:47:30;144358.47;;;7.49;100.00
47530;BME280;33272;51.922;7.730;2023-04-25T02:49:57;144367.31;;;7.53;100.00
47530;BME280;33272;51.922;7.730;2023-04-25T02:52:24;144367.31;;;7.53;100.00
47530;BME280;33272;51.922;7.730;2023-04-25T02:54:51;144360.97;;;7.50;100.00
47530;BME280;33272;51.922;7.730;2023-04-25T02:57:18;144345.84;;;7.44;100.00
47530;BME280;33272;51.922;7.730;2023-04-25T02:59:45;144360.97;;;7.50;100.00
47530;BME280;33272;51.922;7.730;2023-04-25T03:02:12;144353.44;;;7.47;100.00
47530;BME280;33272;51.922;7.730;2023-04-25T03:04:40;144338.25;;;7.41;100.00
47530;BME280;33272;51.922;7.730;2023-04-25T03:07:08;144347.09;;;7.45;100.00
47530;BME280;33272;51.922;7.730;2023-04-25T03:09:35;144335.69;;;7.40;100.00
47530;BME280;33272;51.922;7.730;2023-04-25T03:12:02;144339.50;;;7.41;100.00
47530;BME280;33272;51.922;7.730;2023-04-25T03:14:29;144335.69;;;7.40;100.00
47530;BME280;33272;51.922;7.730;2023-04-25T03:16:56;144344.53;;;7.43;100.00
47530;BME280;33272;51.922;7.730;2023-04-25T03:19:23;144347.09;;;7.45;100.00
47530;BME280;33272;51.922;7.730;2023-04-25T03:21:51;144345.84;;;7.44;100.00
47530;BME280;33272;51.922;7.730;2023-04-25T03:24:19;144338.25;;;7.41;100.00
47530;BME280;33272;51.922;7.730;2023-04-25T03:26:46;144333.19;;;7.39;100.00
47530;BME280;33272;51.922;7.730;2023-04-25T03:29:13;144307.91;;;7.29;100.00
47530;BME280;33272;51.922;7.730;2023-04-25T03:31:40;144287.69;;;7.20;100.00
47530;BME280;33272;51.922;7.730;2023-04-25T03:34:07;144280.09;;;7.17;100.00
47530;BME280;33272;51.922;7.730;2023-04-25T03:36:34;144297.78;;;7.25;100.00
47530;BME280;33272;51.922;7.730;2023-04-25T03:39:02;144305.34;;;7.28;100.00
47530;BME280;33272;51.922;7.730;2023-04-25T03:41:29;144300.34;;;7.26;100.00
47530;BME280;33272;51.922;7.730;2023-04-25T03:43:56;144286.44;;;7.20;100.00
47530;BME280;33272;51.922;7.730;2023-04-25T03:46:23;144285.16;;;7.19;100.00
47530;BME280;33272;51.922;7.730;2023-04-25T03:48:50;144285.16;;;7.19;100.00
47530;BME280;33272;51.922;7.730;2023-04-25T03:51:17;144283.91;;;7.19;100.00
47530;BME280;33272;51.922;7.730;2023-04-25T03:53:44;144290.19;;;7.22;100.00
47530;BME280;33272;51.922;7.730;2023-04-25T03:56:12;144287.69;;;7.20;100.00
47530;BME280;33272;51.922;7.730;2023-04-25T03:58:39;144285.16;;;7.19;100.00
47530;BME280;33272;51.922;7.730;2023-04-25T04:01:06;144276.34;;;7.16;100.00
47530;BME280;33272;51.922;7.730;2023-04-25T04:03:34;144275.03;;;7.15;100.00
47530;BME280;33272;51.922;7.730;2023-04-25T04:06:01;144277.59;;;7.16;100.00
47530;BME280;33272;51.922;7.730;2023-04-25T04:08:28;144257.34;;;7.08;100.00
47530;BME280;33272;51.922;7.730;2023-04-25T04:10:57;144248.50;;;7.05;100.00
47530;BME280;33272;51.922;7.730;2023-04-25T04:13:26;144240.94;;;7.02;100.00
47530;BME280;33272;51.922;7.730;2023-04-25T04:15:53;144251.00;;;7.06;100.00
47530;BME280;33272;51.922;7.730;2023-04-25T04:18:21;144252.31;;;7.06;100.00
47530;BME280;33272;51.922;7.730;2023-04-25T04:20:48;144256.09;;;7.08;100.00
47530;BME280;33272;51.922;7.730;2023-04-25T04:23:15;144256.09;;;7.08;100.00
47530;BME280;33272;51.922;7.730;2023-04-25T04:25:42;144254.84;;;7.07;100.00
47530;BME280;33272;51.922;7.730;2023-04-25T04:28:09;144248.50;;;7.05;100.00
47530;BME280;33272;51.922;7.730;2023-04-25T04:30:39;144247.25;;;7.04;100.00
47530;BME280;33272;51.922;7.730;2023-04-25T04:33:06;144242.19;;;7.02;100.00
47530;BME280;33272;51.922;7.730;2023-04-25T04:35:34;144242.19;;;7.02;100.00
47530;BME280;33272;51.922;7.730;2023-04-25T04:38:01;144239.66;;;7.01;100.00
47530;BME280;33272;51.922;7.730;2023-04-25T04:40:28;144251.00;;;7.06;100.00
47530;BME280;33272;51.922;7.730;2023-04-25T04:42:56;144257.34;;;7.08;100.00
47530;BME280;33272;51.922;7.730;2023-04-25T04:45:23;144240.94;;;7.02;100.00
47530;BME280;33272;51.922;7.730;2023-04-25T04:47:51;144237.16;;;7.00;100.00
47530;BME280;33272;51.922;7.730;2023-04-25T04:50:21;144244.75;;;7.03;100.00
47530;BME280;33272;51.922;7.730;2023-04-25T04:52:48;144232.09;;;6.98;100.00
47530;BME280;33272;51.922;7.730;2023-04-25T04:55:15;144244.75;;;7.03;100.00
47530;BME280;33272;51.922;7.730;2023-04-25T04:57:42;144253.59;;;7.07;100.00
47530;BME280;33272;51.922;7.730;2023-04-25T05:00:11;144267.44;;;7.12;100.00
47530;BME280;33272;51.922;7.730;2023-04-25T05:02:39;144263.66;;;7.11;100.00
47530;BME280;33272;51.922;7.730;2023-04-25T05:05:08;144276.34;;;7.16;100.00
47530;BME280;33272;51.922;7.730;2023-04-25T05:07:36;144275.03;;;7.15;100.00
47530;BME280;33272;51.922;7.730;2023-04-25T05:10:04;144295.25;;;7.24;100.00
47530;BME280;33272;51.922;7.730;2023-04-25T05:12:31;144295.25;;;7.24;100.00
47530;BME280;33272;51.922;7.730;2023-04-25T05:14:58;144301.59;;;7.26;100.00
47530;BME280;33272;51.922;7.730;2023-04-25T05:17:25;144310.44;;;7.30;100.00
47530;BME280;33272;51.922;7.730;2023-04-25T05:19:52;144314.19;;;7.31;100.00
47530;BME280;33272;51.922;7.730;2023-04-25T05:22:21;144320.53;;;7.34;100.00
47530;BME280;33272;51.922;7.730;2023-04-25T05:24:48;144343.28;;;7.43;100.00
47530;BME280;33272;51.922;7.730;2023-04-25T05:27:17;144324.34;;;7.35;100.00
47530;BME280;33272;51.922;7.730;2023-04-25T05:29:44;144320.53;;;7.34;100.00
47530;BME280;33272;51.922;7.730;2023-04-25T05:32:12;144342.03;;;7.42;100.00
47530;BME280;33272;51.922;7.730;2023-04-25T05:34:39;144353.44;;;7.47;100.00
47530;BME280;33272;51.922;7.730;2023-04-25T05:37:06;144362.28;;;7.51;100.00
47530;BME280;33272;51.922;7.730;2023-04-25T05:39:34;144376.13;;;7.56;100.00
47530;BME280;33272;51.922;7.730;2023-04-25T05:42:01;144381.22;;;7.58;100.00
47530;BME280;33272;51.922;7.730;2023-04-25T05:44:29;144401.47;;;7.66;100.00
47530;BME280;33272;51.922;7.730;2023-04-25T05:46:56;144409.03;;;7.70;100.00
47530;BME280;33272;51.922;7.730;2023-04-25T05:49:23;144406.50;;;7.69;100.00
47530;BME280;33272;51.922;7.730;2023-04-25T05:51:51;144420.41;;;7.74;100.00
47530;BME280;33272;51.922;7.730;2023-04-25T05:54:18;144447.00;;;7.85;100.00
47530;BME280;33272;51.922;7.730;2023-04-25T05:56:46;144472.28;;;7.95;100.00
47530;BME280;33272;51.922;7.730;2023-04-25T05:59:13;144491.22;;;8.03;100.00
47530;BME280;33272;51.922;7.730;2023-04-25T06:01:40;144506.41;;;8.09;100.00
47530;BME280;33272;51.922;7.730;2023-04-25T06:04:07;144496.28;;;8.05;100.00
47530;BME280;33272;51.922;7.730;2023-04-25T06:06:34;144517.81;;;8.13;100.00
47530;BME280;33272;51.922;7.730;2023-04-25T06:09:01;144531.69;;;8.19;100.00
47530;BME280;33272;51.922;7.730;2023-04-25T06:11:28;144546.84;;;8.25;100.00
47530;BME280;33272;51.922;7.730;2023-04-25T06:13:56;144567.13;;;8.33;100.00
47530;BME280;33272;51.922;7.730;2023-04-25T06:16:24;144577.22;;;8.38;100.00
47530;BME280;33272;51.922;7.730;2023-04-25T06:18:51;144601.31;;;8.47;100.00
47530;BME280;33272;51.922;7.730;2023-04-25T06:21:18;144621.56;;;8.55;100.00
47530;BME280;33272;51.922;7.730;2023-04-25T06:23:45;144605.13;;;8.49;100.00
47530;BME280;33272;51.922;7.730;2023-04-25T06:26:12;144620.31;;;8.55;100.00
47530;BME280;33272;51.922;7.730;2023-04-25T06:28:39;144591.19;;;8.43;100.00
47530;BME280;33272;51.922;7.730;2023-04-25T06:31:07;144603.88;;;8.48;100.00
47530;BME280;33272;51.922;7.730;2023-04-25T06:33:34;144596.28;;;8.45;100.00
47530;BME280;33272;51.922;7.730;2023-04-25T06:36:01;144608.91;;;8.50;100.00
47530;BME280;33272;51.922;7.730;2023-04-25T06:38:28;144621.56;;;8.55;100.00
47530;BME280;33272;51.922;7.730;2023-04-25T06:40:55;144638.00;;;8.62;100.00
47530;BME280;33272;51.922;7.730;2023-04-25T06:43:22;144667.13;;;8.74;100.00
47530;BME280;33272;51.922;7.730;2023-04-25T06:45:49;144683.56;;;8.80;100.00
47530;BME280;33272;51.922;7.730;2023-04-25T06:48:18;144659.53;;;8.71;100.00
47530;BME280;33272;51.922;7.730;2023-04-25T06:50:45;144674.72;;;8.77;100.00
47530;BME280;33272;51.922;7.730;2023-04-25T06:53:12;144672.16;;;8.76;100.00
47530;BME280;33272;51.922;7.730;2023-04-25T06:55:39;144693.69;;;8.85;100.00
47530;BME280;33272;51.922;7.730;2023-04-25T06:58:06;144734.19;;;9.01;100.00
47530;BME280;33272;51.922;7.730;2023-04-25T07:00:33;144764.56;;;9.13;100.00
47530;BME280;33272;51.922;7.730;2023-04-25T07:03:00;144797.47;;;9.26;100.00
47530;BME280;33272;51.922;7.730;2023-04-25T07:05:29;144797.47;;;9.26;100.00
47530;BME280;33272;51.922;7.730;2023-04-25T07:07:56;144777.25;;;9.18;100.00
47530;BME280;33272;51.922;7.730;2023-04-25T07:10:23;144798.78;;;9.27;100.00
47530;BME280;33272;51.922;7.730;2023-04-25T07:12:50;144853.22;;;9.49;100.00
47530;BME280;33272;51.922;7.730;2023-04-25T07:15:17;144857.00;;;9.50;100.00
47530;BME280;33272;51.922;7.730;2023-04-25T07:17:44;144845.63;;;9.46;100.00
47530;BME280;33272;51.922;7.730;2023-04-25T07:20:12;144893.72;;;9.65;100.00
47530;BME280;33272;51.922;7.730;2023-04-25T07:22:40;144901.34;;;9.68;100.00
47530;BME280;33272;51.922;7.730;2023-04-25T07:25:08;144919.06;;;9.75;100.00
47530;BME280;33272;51.922;7.730;2023-04-25T07:27:35;144927.91;;;9.79;100.00
47530;BME280;33272;51.922;7.730;2023-04-25T07:30:03;144848.13;;;9.47;100.00
47530;BME280;33272;51.922;7.730;2023-04-25T07:32:30;144872.19;;;9.57;100.00
47530;BME280;33272;51.922;7.730;2023-04-25T07:34:57;144844.31;;;9.45;100.00
47530;BME280;33272;51.922;7.730;2023-04-25T07:37:24;144859.50;;;9.51;100.00
47530;BME280;33272;51.922;7.730;2023-04-25T07:39:53;144883.56;;;9.61;100.00
47530;BME280;33272;51.922;7.730;2023-04-25T07:42:20;144917.78;;;9.75;100.00
47530;BME280;33272;51.922;7.730;2023-04-25T07:44:47;144941.84;;;9.85;100.00
47530;BME280;33272;51.922;7.730;2023-04-25T07:47:14;144946.94;;;9.87;100.00
47530;BME280;33272;51.922;7.730;2023-04-25T07:49:41;144981.13;;;10.01;100.00
47530;BME280;33272;51.922;7.730;2023-04-25T07:52:08;144945.63;;;9.86;100.00
47530;BME280;33272;51.922;7.730;2023-04-25T07:54:35;144915.22;;;9.74;98.86
47530;BME280;33272;51.922;7.730;2023-04-25T07:57:04;144921.56;;;9.77;99.06
47530;BME280;33272;51.922;7.730;2023-04-25T07:59:32;144915.22;;;9.74;99.83
47530;BME280;33272;51.922;7.730;2023-04-25T08:01:59;144938.03;;;9.83;95.15
47530;BME280;33272;51.922;7.730;2023-04-25T08:04:27;144969.69;;;9.96;97.55
47530;BME280;33272;51.922;7.730;2023-04-25T08:06:54;145011.53;;;10.13;97.99
47530;BME280;33272;51.922;7.730;2023-04-25T08:09:21;145073.66;;;10.38;97.44
47530;BME280;33272;51.922;7.730;2023-04-25T08:11:48;145053.38;;;10.30;94.34
47530;BME280;33272;51.922;7.730;2023-04-25T08:14:17;145054.63;;;10.30;96.53
47530;BME280;33272;51.922;7.730;2023-04-25T08:16:44;145102.78;;;10.50;97.92
47530;BME280;33272;51.922;7.730;2023-04-25T08:19:11;145162.38;;;10.74;98.03
47530;BME280;33272;51.922;7.730;2023-04-25T08:21:38;145123.09;;;10.58;94.98
47530;BME280;33272;51.922;7.730;2023-04-25T08:24:05;145072.41;;;10.37;96.51
47530;BME280;33272;51.922;7.730;2023-04-25T08:26:32;145069.84;;;10.36;95.59
47530;BME280;33272;51.922;7.730;2023-04-25T08:29:00;145068.59;;;10.36;94.52
47530;BME280;33272;51.922;7.730;2023-04-25T08:31:28;145124.34;;;10.58;93.63
47530;BME280;33272;51.922;7.730;2023-04-25T08:33:55;145107.88;;;10.52;91.11
47530;BME280;33272;51.922;7.730;2023-04-25T08:36:22;145034.34;;;10.22;93.99
47530;BME280;33272;51.922;7.730;2023-04-25T08:38:49;144973.53;;;9.97;89.67
47530;BME280;33272;51.922;7.730;2023-04-25T08:41:16;144978.59;;;10.00;93.27
47530;BME280;33272;51.922;7.730;2023-04-25T08:43:45;145024.19;;;10.18;94.33
47530;BME280;33272;51.922;7.730;2023-04-25T08:46:18;145034.34;;;10.22;91.49
47530;BME280;33272;51.922;7.730;2023-04-25T08:48:46;145017.88;;;10.15;89.62
47530;BME280;33272;51.922;7.730;2023-04-25T08:51:21;145030.50;;;10.20;86.96
47530;BME280;33272;51.922;7.730;2023-04-25T08:53:51;145050.84;;;10.29;87.04
47530;BME280;33272;51.922;7.730;2023-04-25T08:56:18;144993.81;;;10.06;86.99
47530;BME280;33272;51.922;7.730;2023-04-25T08:58:49;144986.22;;;10.03;87.86
47530;BME280;33272;51.922;7.730;2023-04-25T09:01:17;144959.56;;;9.92;87.44
47530;BME280;33272;51.922;7.730;2023-04-25T09:03:45;144935.50;;;9.82;85.70
47530;BME280;33272;51.922;7.730;2023-04-25T09:06:13;144957.06;;;9.91;87.04
47530;BME280;33272;51.922;7.730;2023-04-25T09:08:41;145017.88;;;10.15;87.67
47530;BME280;33272;51.922;7.730;2023-04-25T09:11:08;145100.25;;;10.49;86.34
47530;BME280;33272;51.922;7.730;2023-04-25T09:13:35;145188.97;;;10.84;86.45
47530;BME280;33272;51.922;7.730;2023-04-25T09:16:02;145281.53;;;11.22;85.30
47530;BME280;33272;51.922;7.730;2023-04-25T09:18:31;145367.78;;;11.56;82.24
47530;BME280;33272;51.922;7.730;2023-04-25T09:21:07;145389.34;;;11.65;79.79
47530;BME280;33272;51.922;7.730;2023-04-25T09:23:40;145380.47;;;11.62;82.12
47530;BME280;33272;51.922;7.730;2023-04-25T09:26:07;145405.84;;;11.72;82.54
47530;BME280;33272;51.922;7.730;2023-04-25T09:28:35;145366.53;;;11.56;78.49
47530;BME280;33272;51.922;7.730;2023-04-25T09:31:03;145348.78;;;11.49;79.27
47530;BME280;33272;51.922;7.730;2023-04-25T09:33:32;145267.63;;;11.16;81.78
47530;BME280;33272;51.922;7.730;2023-04-25T09:36:07;145158.59;;;10.72;78.18
47530;BME280;33272;51.922;7.730;2023-04-25T09:38:41;145120.56;;;10.57;76.09
47530;BME280;33272;51.922;7.730;2023-04-25T09:41:09;145135.78;;;10.63;79.16
47530;BME280;33272;51.922;7.730;2023-04-25T09:43:37;145120.56;;;10.57;79.63
47530;BME280;33272;51.922;7.730;2023-04-25T09:46:09;145115.47;;;10.55;78.17
47530;BME280;33272;51.922;7.730;2023-04-25T09:48:36;145144.63;;;10.66;80.55
47530;BME280;33272;51.922;7.730;2023-04-25T09:51:07;145192.81;;;10.86;76.35
47530;BME280;33272;51.922;7.730;2023-04-25T09:53:36;145209.28;;;10.93;77.67
47530;BME280;33272;51.922;7.730;2023-04-25T09:56:05;145299.31;;;11.29;77.62
47530;BME280;33272;51.922;7.730;2023-04-25T09:58:33;145320.84;;;11.37;76.06
47530;BME280;33272;51.922;7.730;2023-04-25T10:01:02;145305.63;;;11.31;72.42
47530;BME280;33272;51.922;7.730;2023-04-25T10:03:31;145315.81;;;11.35;74.80
47530;BME280;33272;51.922;7.730;2023-04-25T10:06:00;145333.56;;;11.43;74.15
47530;BME280;33272;51.922;7.730;2023-04-25T10:08:32;145306.94;;;11.32;70.00
47530;BME280;33272;51.922;7.730;2023-04-25T10:11:01;145320.84;;;11.37;73.50
47530;BME280;33272;51.922;7.730;2023-04-25T10:13:30;145324.69;;;11.39;69.30
47530;BME280;33272;51.922;7.730;2023-04-25T10:15:58;145375.38;;;11.59;72.54
47530;BME280;33272;51.922;7.730;2023-04-25T10:18:27;145414.72;;;11.75;69.56
47530;BME280;33272;51.922;7.730;2023-04-25T10:20:55;145452.84;;;11.91;64.24
47530;BME280;33272;51.922;7.730;2023-04-25T10:23:23;145565.81;;;12.36;68.88
47530;BME280;33272;51.922;7.730;2023-04-25T10:25:53;145601.31;;;12.50;61.08
47530;BME280;33272;51.922;7.730;2023-04-25T10:28:20;145606.41;;;12.52;66.85
47530;BME280;33272;51.922;7.730;2023-04-25T10:30:58;145594.97;;;12.48;61.22
47530;BME280;33272;51.922;7.730;2023-04-25T10:33:35;145497.25;;;12.09;59.51
47530;BME280;33272;51.922;7.730;2023-04-25T10:36:10;145511.22;;;12.14;64.78
47530;BME280;33272;51.922;7.730;2023-04-25T10:38:38;145503.63;;;12.11;66.41
47530;BME280;33272;51.922;7.730;2023-04-25T10:41:08;145446.47;;;11.88;66.29
47530;BME280;33272;51.922;7.730;2023-04-25T10:43:38;145424.91;;;11.79;66.96
47530;BME280;33272;51.922;7.730;2023-04-25T10:46:18;145440.19;;;11.86;60.47
47530;BME280;33272;51.922;7.730;2023-04-25T10:48:48;145493.44;;;12.07;66.32
47530;BME280;33272;51.922;7.730;2023-04-25T10:51:21;145518.84;;;12.17;65.54
47530;BME280;33272;51.922;7.730;2023-04-25T10:53:59;145606.41;;;12.52;61.33
47530;BME280;33272;51.922;7.730;2023-04-25T10:56:29;145577.22;;;12.41;62.49
47530;BME280;33272;51.922;7.730;2023-04-25T10:59:08;145461.72;;;11.94;64.48
47530;BME280;33272;51.922;7.730;2023-04-25T11:01:39;145437.59;;;11.85;62.27
47530;BME280;33272;51.922;7.730;2023-04-25T11:04:06;145375.38;;;11.59;63.12
47530;BME280;33272;51.922;7.730;2023-04-25T11:07:01;145295.50;;;11.27;65.80
47530;BME280;33272;51.922;7.730;2023-04-25T11:09:29;145194.06;;;10.86;66.06
47530;BME280;33272;51.922;7.730;2023-04-25T11:11:59;145143.38;;;10.66;66.24
47530;BME280;33272;51.922;7.730;2023-04-25T11:14:26;145115.47;;;10.55;69.75
47530;BME280;33272;51.922;7.730;2023-04-25T11:16:54;145112.94;;;10.54;69.12
47530;BME280;33272;51.922;7.730;2023-04-25T11:19:21;145130.69;;;10.61;70.71
47530;BME280;33272;51.922;7.730;2023-04-25T11:21:48;145130.69;;;10.61;71.48
47530;BME280;33272;51.922;7.730;2023-04-25T11:24:17;145128.16;;;10.60;72.82
47530;BME280;33272;51.922;7.730;2023-04-25T11:26:46;145138.28;;;10.64;73.96
47530;BME280;33272;51.922;7.730;2023-04-25T11:29:15;145111.69;;;10.53;75.64
47530;BME280;33272;51.922;7.730;2023-04-25T11:31:43;145121.81;;;10.57;75.10
47530;BME280;33272;51.922;7.730;2023-04-25T11:34:11;145119.31;;;10.56;75.57
47530;BME280;33272;51.922;7.730;2023-04-25T11:36:39;145137.03;;;10.63;75.50
47530;BME280;33272;51.922;7.730;2023-04-25T11:39:06;145158.59;;;10.72;76.70
47530;BME280;33272;51.922;7.730;2023-04-25T11:41:33;145209.28;;;10.93;74.90
47530;BME280;33272;51.922;7.730;2023-04-25T11:44:00;145239.72;;;11.05;75.97
47530;BME280;33272;51.922;7.730;2023-04-25T11:46:28;145305.63;;;11.31;75.35
47530;BME280;33272;51.922;7.730;2023-04-25T11:48:56;145331.03;;;11.42;74.04
47530;BME280;33272;51.922;7.730;2023-04-25T11:51:23;145331.03;;;11.42;73.16
47530;BME280;33272;51.922;7.730;2023-04-25T11:53:51;145353.88;;;11.51;73.04
47530;BME280;33272;51.922;7.730;2023-04-25T11:56:18;145320.84;;;11.37;73.57
47530;BME280;33272;51.922;7.730;2023-04-25T11:58:57;145263.78;;;11.14;69.17
47530;BME280;33272;51.922;7.730;2023-04-25T12:01:30;145292.97;;;11.26;72.14
47530;BME280;33272;51.922;7.730;2023-04-25T12:03:58;145188.97;;;10.84;71.51
47530;BME280;33272;51.922;7.730;2023-04-25T12:06:28;145153.50;;;10.70;68.24
47530;BME280;33272;51.922;7.730;2023-04-25T12:09:02;145099.00;;;10.48;62.17
47530;BME280;33272;51.922;7.730;2023-04-25T12:11:30;145102.78;;;10.50;68.26
47530;BME280;33272;51.922;7.730;2023-04-25T12:14:02;145118.00;;;10.56;66.16
47530;BME280;33272;51.922;7.730;2023-04-25T12:16:41;145106.59;;;10.51;59.51
47530;BME280;33272;51.922;7.730;2023-04-25T12:19:08;145073.66;;;10.38;65.05
47530;BME280;33272;51.922;7.730;2023-04-25T12:21:35;145072.41;;;10.37;60.39
47530;BME280;33272;51.922;7.730;2023-04-25T12:24:13;145068.59;;;10.36;61.98
47530;BME280;33272;51.922;7.730;2023-04-25T12:26:49;145119.31;;;10.56;62.41
47530;BME280;33272;51.922;7.730;2023-04-25T12:29:20;145166.19;;;10.75;64.86
47530;BME280;33272;51.922;7.730;2023-04-25T12:31:49;145183.94;;;10.82;58.51
47530;BME280;33272;51.922;7.730;2023-04-25T12:34:17;145216.88;;;10.96;61.58
47530;BME280;33272;51.922;7.730;2023-04-25T12:36:44;145248.59;;;11.08;61.58
47530;BME280;33272;51.922;7.730;2023-04-25T12:39:22;145211.78;;;10.94;57.50
47530;BME280;33272;51.922;7.730;2023-04-25T12:41:50;145260.03;;;11.13;63.35
47530;BME280;33272;51.922;7.730;2023-04-25T12:44:17;145309.47;;;11.33;61.37
47530;BME280;33272;51.922;7.730;2023-04-25T12:46:44;145369.09;;;11.57;63.21
47530;BME280;33272;51.922;7.730;2023-04-25T12:49:13;145446.47;;;11.88;64.51
47530;BME280;33272;51.922;7.730;2023-04-25T12:51:40;145464.28;;;11.95;66.53
47530;BME280;33272;51.922;7.730;2023-04-25T12:54:08;145447.78;;;11.89;67.77
47530;BME280;33272;51.922;7.730;2023-04-25T12:56:36;145419.81;;;11.77;67.96